Leland, Iowa
Current Conditions -  °F | °C
As of 11:35 AM on Saturday 25 Oct 2014 (Local Time) from KFXY Reporting Station
Clear Clear  
Wind Chill: 61°   Ceiling: Unl
Heat Index: 61°   Visibility: 10mi
Dew Point: 39°   Wind: 10mph
Humidity: 45%   Direction: 330°NNW
Pressure: 30.11"   Gusts: NA
Location:  43.34°N, 93.64°W
Report Text: KFXY 251635Z AUTO 33009KT 10SM CLR 16/04 A3011 RMK AO2
Loading
Personal Weather Stations






























Interactive Weather Map
Tropical Storm Tracking
New forecast layout! Learn more

10-Day Weather Forecast

Advertisements
Track Severe Weather on mobile